createdAt,value
2018-12-25T00:00:29.487Z,21.4
2018-12-25T00:01:18.292Z,21.7
2018-12-25T00:02:08.915Z,21.9
2018-12-25T00:02:59.562Z,22.1
2018-12-25T00:03:48.737Z,22.2
2018-12-25T00:04:39.084Z,22.3
2018-12-25T00:05:29.632Z,22.5
2018-12-25T00:06:18.617Z,22.6
2018-12-25T00:07:09.879Z,22.8
2018-12-25T00:07:59.827Z,22.9
2018-12-25T00:08:49.352Z,22.9
2018-12-25T00:09:39.277Z,23.1
2018-12-25T00:10:30.351Z,23.2
2018-12-25T00:11:19.272Z,23.3
2018-12-25T00:12:09.996Z,23.3
2018-12-25T00:12:59.194Z,23.4
2018-12-25T00:13:49.659Z,23.4
2018-12-25T00:14:40.061Z,23.5
2018-12-25T00:32:49.665Z,20.1
2018-12-25T00:33:39.050Z,20.6
2018-12-25T00:34:28.415Z,21
2018-12-25T00:35:18.957Z,21.3
2018-12-25T00:36:08.490Z,21.5
2018-12-25T00:36:58.822Z,21.7
2018-12-25T00:37:48.945Z,21.9
2018-12-25T00:38:39.227Z,21.9
2018-12-25T00:39:28.560Z,21.4
2018-12-25T00:40:19.307Z,20.6
2018-12-25T00:41:09.114Z,19.9
2018-12-25T00:42:00.034Z,19.3
2018-12-25T00:42:50.286Z,18.5
2018-12-25T00:43:37.692Z,17.8
2018-12-25T00:44:29.352Z,17.2
2018-12-25T00:45:22.252Z,16.9
2018-12-25T00:46:09.487Z,17.1
2018-12-25T00:46:59.792Z,17.6
2018-12-25T00:47:50.634Z,18.4
2018-12-25T00:48:40.461Z,19.1
2018-12-25T00:49:29.941Z,19.7
2018-12-25T00:50:20.329Z,20.2
2018-12-25T00:51:10.144Z,20.7
2018-12-25T00:51:59.911Z,21
2018-12-25T00:52:51.424Z,21.3
2018-12-25T00:53:40.256Z,21.6
2018-12-25T00:54:30.326Z,21.8
2018-12-25T00:55:20.316Z,21.9
2018-12-25T00:56:09.852Z,22.1
2018-12-25T00:57:00.043Z,22.3
2018-12-25T00:57:50.041Z,22.4
2018-12-25T00:58:41.216Z,22.6
2018-12-25T00:59:29.925Z,22.7
2018-12-25T01:00:20.143Z,22.8
2018-12-25T01:01:10.490Z,22.8
2018-12-25T01:01:59.482Z,22.9
2018-12-25T01:02:50.046Z,23
2018-12-25T01:03:40.885Z,23.1
2018-12-25T01:04:31.041Z,23.2
2018-12-25T01:05:20.775Z,23.3
2018-12-25T01:06:11.273Z,23.3
2018-12-25T01:07:00.610Z,23.4
2018-12-25T01:07:51.303Z,23.4
2018-12-25T01:08:41.360Z,23.4
2018-12-25T01:09:31.068Z,22.8
2018-12-25T01:10:21.692Z,22.2
2018-12-25T01:11:11.815Z,21.8
2018-12-25T01:12:01.824Z,21.5
2018-12-25T01:12:51.842Z,21.2
2018-12-25T01:13:41.616Z,21
2018-12-25T01:14:31.151Z,20.8
2018-12-25T01:15:21.757Z,20.6
2018-12-25T01:16:11.370Z,20.5
2018-12-25T01:17:01.047Z,20.4
2018-12-25T01:17:51.370Z,20.3
2018-12-25T01:18:41.227Z,20.1
2018-12-25T01:19:32.002Z,20.1
2018-12-25T01:20:22.383Z,19.9
2018-12-25T01:21:11.892Z,19.6
2018-12-25T01:22:01.187Z,19.5
2018-12-25T01:22:52.545Z,19.3
2018-12-25T01:23:42.020Z,19.4
2018-12-25T01:24:32.695Z,19.9
2018-12-25T01:25:22.707Z,20.4
2018-12-25T01:26:12.790Z,20.8
2018-12-25T01:27:03.117Z,21.1
2018-12-25T01:27:53.182Z,21.3
2018-12-25T01:28:42.976Z,21.6
2018-12-25T01:29:33.370Z,21.7
2018-12-25T01:30:23.319Z,21.9
2018-12-25T01:31:12.624Z,22.1
2018-12-25T01:32:03.299Z,22.2
2018-12-25T01:32:53.259Z,22.3
2018-12-25T01:33:42.248Z,22.4
2018-12-25T01:34:33.112Z,22.5
2018-12-25T01:35:22.559Z,22.6
2018-12-25T01:36:13.017Z,22.7
2018-12-25T01:37:02.799Z,22.8
2018-12-25T01:37:52.558Z,22.9
2018-12-25T01:38:42.607Z,22.9
2018-12-25T01:39:32.909Z,23
2018-12-25T01:40:22.879Z,23.1
2018-12-25T01:41:13.589Z,23.2
2018-12-25T01:42:03.859Z,23.2
2018-12-25T01:42:53.106Z,23.3
2018-12-25T01:43:43.654Z,23.4
2018-12-25T01:44:33.831Z,23.2
2018-12-25T01:45:23.246Z,22.6
2018-12-25T01:46:13.588Z,22.1
2018-12-25T01:47:03.628Z,21.7
2018-12-25T01:47:53.434Z,21.4
2018-12-25T01:49:40.551Z,20.9
2018-12-25T01:50:24.689Z,20.7
2018-12-25T01:51:14.057Z,20.6
2018-12-25T01:52:04.560Z,20.4
2018-12-25T01:52:54.365Z,20.3
2018-12-25T01:53:43.548Z,20.2
2018-12-25T01:54:34.416Z,20.1
2018-12-25T01:55:23.995Z,19.9
2018-12-25T01:56:13.617Z,19.8
2018-12-25T01:57:03.897Z,19.6
2018-12-25T01:57:54.105Z,19.4
2018-12-25T01:58:44.462Z,19.3
2018-12-25T01:59:34.490Z,19.2
2018-12-25T02:00:25.369Z,19.6
2018-12-25T02:01:14.890Z,20.1
2018-12-25T02:02:05.817Z,20.5
2018-12-25T02:02:54.994Z,20.9
2018-12-25T02:04:35.398Z,21.4
2018-12-25T02:05:24.669Z,21.6
2018-12-25T02:06:15.644Z,21.8
2018-12-25T02:07:05.284Z,21.9
2018-12-25T02:07:55.356Z,22
2018-12-25T02:08:45.694Z,22.2
2018-12-25T02:09:35.754Z,22.3
2018-12-25T02:10:24.431Z,22.4
2018-12-25T02:11:16.166Z,22.5
2018-12-25T02:12:05.733Z,22.6
2018-12-25T02:12:54.311Z,22.7
2018-12-25T02:13:45.603Z,22.8
2018-12-25T02:14:35.324Z,22.9
2018-12-25T02:15:25.854Z,22.9
2018-12-25T02:16:15.356Z,23.1
2018-12-25T02:17:05.711Z,23.1
2018-12-25T02:17:56.325Z,23.1
2018-12-25T02:18:45.533Z,22.8
2018-12-25T02:19:43.701Z,22.1
2018-12-25T02:20:25.673Z,21
2018-12-25T02:21:16.818Z,20.4
2018-12-25T02:22:06.420Z,19.7
2018-12-25T02:22:56.409Z,18.9
2018-12-25T02:23:47.095Z,18.3
2018-12-25T02:24:35.960Z,17.6
2018-12-25T02:25:26.635Z,17.3
2018-12-25T02:26:16.725Z,17.4
2018-12-25T02:27:06.473Z,17.9
2018-12-25T02:28:47.083Z,19.4
2018-12-25T02:29:37.077Z,20
2018-12-25T02:30:27.011Z,20.5
2018-12-25T02:31:17.170Z,20.9
2018-12-25T02:32:07.071Z,21.2
2018-12-25T02:32:57.328Z,21.4
2018-12-25T02:33:46.632Z,21.7
2018-12-25T02:34:37.993Z,21.9
2018-12-25T02:35:26.865Z,22.1
2018-12-25T02:36:18.167Z,22.2
2018-12-25T02:37:07.138Z,22.3
2018-12-25T02:37:58.030Z,22.4
2018-12-25T02:38:47.656Z,22.6
2018-12-25T02:39:37.043Z,22.6
2018-12-25T02:40:26.848Z,22.8
2018-12-25T02:41:17.837Z,22.8
2018-12-25T02:42:07.490Z,22.9
2018-12-25T02:42:57.689Z,22.9
2018-12-25T02:43:47.337Z,23
2018-12-25T02:44:38.287Z,23.1
2018-12-25T02:45:28.207Z,23.2
2018-12-25T02:46:18.620Z,23.3
2018-12-25T02:47:08.223Z,23.3
2018-12-25T02:47:57.932Z,23.1
2018-12-25T02:48:48.221Z,22.4
2018-12-25T02:49:36.471Z,21.9
2018-12-25T02:50:28.227Z,21.6
2018-12-25T02:51:19.087Z,21.3
2018-12-25T02:52:08.932Z,21
2018-12-25T02:52:57.708Z,20.8
2018-12-25T02:53:48.546Z,20.6
2018-12-25T02:54:38.399Z,20.4
2018-12-25T02:55:28.428Z,20.3
2018-12-25T02:56:18.799Z,20.2
2018-12-25T02:57:08.679Z,20.1
2018-12-25T02:57:59.139Z,20
2018-12-25T02:58:48.595Z,19.8
2018-12-25T02:59:38.214Z,19.7
2018-12-25T03:00:27.271Z,19.5
2018-12-25T03:01:18.244Z,19.3
2018-12-25T03:02:08.479Z,19.2
2018-12-25T03:02:59.713Z,19.2
2018-12-25T03:03:49.504Z,19.8
2018-12-25T03:04:39.137Z,20.3
2018-12-25T03:05:29.179Z,20.6
2018-12-25T03:06:19.583Z,20.9
2018-12-25T03:07:59.228Z,21.4
2018-12-25T03:08:49.656Z,21.6
2018-12-25T03:09:40.063Z,21.8
2018-12-25T03:10:29.689Z,21.9
2018-12-25T03:11:19.793Z,22.1
2018-12-25T03:12:09.301Z,22.2
2018-12-25T03:13:00.503Z,22.3
2018-12-25T03:13:50.115Z,22.4
2018-12-25T03:14:40.038Z,22.4
2018-12-25T03:15:30.120Z,22.5
2018-12-25T03:16:20.168Z,22.6
2018-12-25T03:17:10.415Z,22.7
2018-12-25T03:18:00.268Z,22.8
2018-12-25T03:18:49.548Z,22.8
2018-12-25T03:19:40.062Z,22.9
2018-12-25T03:20:29.875Z,22.9
2018-12-25T03:21:21.015Z,23
2018-12-25T03:22:09.468Z,23.1
2018-12-25T03:23:00.112Z,23.1
2018-12-25T03:23:50.097Z,23.2
2018-12-25T03:24:40.468Z,23.1
2018-12-25T03:25:30.629Z,22.5
2018-12-25T03:26:19.942Z,21.9
2018-12-25T03:27:10.839Z,21.6
2018-12-25T03:28:01.038Z,21.3
2018-12-25T03:28:51.234Z,21
2018-12-25T03:29:40.532Z,20.8
2018-12-25T03:30:31.170Z,20.6
2018-12-25T03:31:21.429Z,20.4
2018-12-25T03:32:12.311Z,20.3
2018-12-25T03:33:01.393Z,20.1
2018-12-25T03:33:51.559Z,20
2018-12-25T03:34:41.409Z,20
2018-12-25T03:35:30.960Z,19.8
2018-12-25T03:36:20.794Z,19.6
2018-12-25T03:37:11.384Z,19.4
2018-12-25T03:38:00.881Z,19.3
2018-12-25T03:38:51.215Z,19.1
2018-12-25T03:39:42.272Z,19.1
2018-12-25T03:40:31.764Z,19.6
2018-12-25T03:41:21.546Z,20
2018-12-25T03:42:11.991Z,20.4
2018-12-25T03:43:01.385Z,20.7
2018-12-25T03:43:52.021Z,20.9
2018-12-25T03:44:42.485Z,21.2
2018-12-25T03:45:31.831Z,21.4
2018-12-25T03:46:21.421Z,21.6
2018-12-25T03:47:12.301Z,21.8
2018-12-25T03:48:02.928Z,21.9
2018-12-25T03:48:52.359Z,21.9
2018-12-25T03:49:42.451Z,22.1
2018-12-25T03:50:33.025Z,22.2
2018-12-25T03:51:23.178Z,22.3
2018-12-25T03:52:13.290Z,22.4
2018-12-25T03:53:02.988Z,22.4
2018-12-25T03:53:52.482Z,22.5
2018-12-25T03:54:42.353Z,22.6
2018-12-25T03:55:32.774Z,22.7
2018-12-25T03:56:22.358Z,22.8
2018-12-25T03:57:12.442Z,22.8
2018-12-25T03:58:03.262Z,22.9
2018-12-25T03:58:53.058Z,22.9
2018-12-25T03:59:43.409Z,22.4
2018-12-25T04:00:33.284Z,21.8
2018-12-25T04:01:22.438Z,20.8
2018-12-25T04:02:13.344Z,19.9
2018-12-25T04:03:03.908Z,19.1
2018-12-25T04:03:53.444Z,18.9
2018-12-25T04:04:43.727Z,18.9
2018-12-25T04:05:33.876Z,19.4
2018-12-25T04:06:23.405Z,20.1
2018-12-25T04:07:14.242Z,20.6
2018-12-25T04:08:03.532Z,20.9
2018-12-25T04:08:53.750Z,21.2
2018-12-25T04:09:43.871Z,21.4
2018-12-25T04:10:33.045Z,21.6
2018-12-25T04:11:23.967Z,21.8
2018-12-25T04:12:13.160Z,21.9
2018-12-25T04:13:03.762Z,22.1
2018-12-25T04:13:54.490Z,22.3
2018-12-25T04:14:44.619Z,22.3
2018-12-25T04:15:34.582Z,22.4
2018-12-25T04:16:24.262Z,22.5
2018-12-25T04:17:14.324Z,22.6
2018-12-25T04:18:04.690Z,22.7
2018-12-25T04:18:54.429Z,22.7
2018-12-25T04:19:44.728Z,22.8
2018-12-25T04:20:34.239Z,22.8
2018-12-25T04:21:23.980Z,22.9
2018-12-25T04:22:14.134Z,22.9
2018-12-25T04:23:04.759Z,23
2018-12-25T04:23:54.789Z,23.1
2018-12-25T04:24:45.107Z,22.7
2018-12-25T04:25:35.452Z,22.1
2018-12-25T04:26:24.356Z,21.7
2018-12-25T04:27:14.450Z,21.3
2018-12-25T04:28:04.778Z,21
2018-12-25T04:28:54.889Z,20.8
2018-12-25T04:29:45.213Z,20.6
2018-12-25T04:30:35.861Z,20.4
2018-12-25T04:31:25.451Z,20.3
2018-12-25T04:32:15.032Z,20.1
2018-12-25T04:33:05.364Z,19.9
2018-12-25T04:33:54.851Z,19.9
2018-12-25T04:34:44.920Z,19.9
2018-12-25T04:35:35.591Z,19.7
2018-12-25T04:36:25.653Z,19.4
2018-12-25T04:37:16.213Z,19.3
2018-12-25T04:38:05.516Z,19.1
2018-12-25T04:38:55.560Z,19
2018-12-25T04:39:45.889Z,18.9
2018-12-25T04:40:36.180Z,19.4
2018-12-25T04:41:26.747Z,20
2018-12-25T04:42:14.131Z,20.3
2018-12-25T04:43:05.881Z,20.6
2018-12-25T04:43:55.960Z,20.9
2018-12-25T05:02:00.761Z,23
2018-12-25T05:02:51.608Z,22.9
2018-12-25T05:03:42.451Z,22.3
2018-12-25T05:04:31.711Z,21.8
2018-12-25T05:05:21.759Z,21.4
2018-12-25T05:07:02.811Z,20.9
2018-12-25T05:07:52.029Z,20.6
2018-12-25T05:08:42.031Z,20.4
2018-12-25T05:09:33.338Z,20.3
2018-12-25T05:10:22.458Z,20.1
2018-12-25T05:11:12.776Z,20
2018-12-25T05:12:02.778Z,19.9
2018-12-25T05:12:52.511Z,19.8
2018-12-25T05:13:42.258Z,19.8
2018-12-25T05:14:33.068Z,19.6
2018-12-25T05:15:22.870Z,19.3
2018-12-25T05:16:12.695Z,19.2
2018-12-25T05:17:03.312Z,19
2018-12-25T05:17:53.605Z,18.9
2018-12-25T05:18:42.955Z,19.1
2018-12-25T05:19:33.200Z,19.6
2018-12-25T05:20:22.248Z,20.1
2018-12-25T05:21:11.925Z,20.4
2018-12-25T05:22:04.485Z,20.7
2018-12-25T05:22:53.239Z,20.9
2018-12-25T05:23:43.493Z,21.2
2018-12-25T05:24:33.618Z,21.4
2018-12-25T05:25:23.438Z,21.5
2018-12-25T05:26:13.392Z,21.7
2018-12-25T05:27:03.690Z,21.8
2018-12-25T05:27:54.085Z,21.9
2018-12-25T05:28:43.890Z,22
2018-12-25T05:29:33.402Z,22.1
2018-12-25T05:30:23.662Z,22.2
2018-12-25T05:31:13.184Z,22.3
2018-12-25T05:32:03.005Z,22.3
2018-12-25T05:32:54.732Z,22.4
2018-12-25T05:33:44.088Z,22.5
2018-12-25T05:34:34.301Z,22.6
2018-12-25T05:35:23.809Z,22.6
2018-12-25T05:36:13.825Z,22.7
2018-12-25T05:37:04.194Z,22.5
2018-12-25T05:37:54.262Z,21.9
2018-12-25T05:38:44.884Z,21
2018-12-25T05:39:34.369Z,20.1
2018-12-25T05:40:23.998Z,19.3
2018-12-25T05:41:14.261Z,18.6
2018-12-25T05:42:03.442Z,18.6
2018-12-25T05:42:54.864Z,18.8
2018-12-25T05:43:44.916Z,19.5
2018-12-25T05:44:34.988Z,20.1
2018-12-25T05:45:25.584Z,20.5
2018-12-25T05:46:15.138Z,20.8
2018-12-25T05:47:55.785Z,21.3
2018-12-25T05:48:45.428Z,21.6
2018-12-25T05:49:34.716Z,21.7
2018-12-25T05:50:25.568Z,21.8
2018-12-25T05:51:15.429Z,22
2018-12-25T05:52:04.889Z,22.1
2018-12-25T05:52:55.203Z,22.2
2018-12-25T05:53:46.095Z,22.3
2018-12-25T05:54:35.419Z,22.4
2018-12-25T05:55:27.625Z,22.5
2018-12-25T05:56:15.710Z,22.6
2018-12-25T05:57:06.440Z,22.6
2018-12-25T05:57:55.411Z,22.7
2018-12-25T05:58:45.865Z,22.8
2018-12-25T05:59:35.743Z,22.8
2018-12-25T06:00:25.318Z,22.9
2018-12-25T06:01:14.556Z,22.9
2018-12-25T06:02:05.700Z,22.9
2018-12-25T06:02:54.862Z,23
2018-12-25T06:03:46.063Z,22.6
2018-12-25T06:04:36.428Z,22
2018-12-25T06:05:25.037Z,21.6
2018-12-25T06:06:14.645Z,21.2
2018-12-25T06:07:05.538Z,20.9
2018-12-25T06:07:56.662Z,20.7
2018-12-25T06:08:48.060Z,20.5
2018-12-25T06:09:36.530Z,20.3
2018-12-25T06:10:26.790Z,20.2
2018-12-25T06:11:16.581Z,20.1
2018-12-25T06:12:05.787Z,19.9
2018-12-25T06:12:56.377Z,19.8
2018-12-25T06:13:46.752Z,19.8
2018-12-25T06:14:36.477Z,19.6
2018-12-25T06:15:26.818Z,19.4
2018-12-25T06:16:16.852Z,19.3
2018-12-25T06:17:07.447Z,19.1
2018-12-25T06:17:56.453Z,18.9
2018-12-25T06:18:47.392Z,18.9
2018-12-25T06:19:36.762Z,19.3
2018-12-25T06:20:27.727Z,19.9
2018-12-25T06:21:16.683Z,20.3
2018-12-25T06:22:06.662Z,20.5
2018-12-25T06:22:57.761Z,20.8
2018-12-25T06:23:47.816Z,21.1
2018-12-25T06:24:37.382Z,21.3
2018-12-25T06:25:28.087Z,21.4
2018-12-25T06:26:18.041Z,21.6
2018-12-25T06:27:07.859Z,21.7
2018-12-25T06:27:57.608Z,21.9
2018-12-25T06:28:47.988Z,21.9
2018-12-25T06:29:38.369Z,22.1
2018-12-25T06:30:27.801Z,22.1
2018-12-25T06:31:17.631Z,22.2
2018-12-25T06:32:06.981Z,22.3
2018-12-25T06:32:56.921Z,22.4
2018-12-25T06:33:48.293Z,22.4
2018-12-25T06:34:38.071Z,22.6
2018-12-25T06:35:28.723Z,22.6
2018-12-25T06:36:18.780Z,22.6
2018-12-25T06:37:08.616Z,22.8
2018-12-25T06:37:57.340Z,22.8
2018-12-25T06:38:48.146Z,22.8
2018-12-25T06:39:38.783Z,22.9
2018-12-25T06:40:28.262Z,22.9
2018-12-25T06:41:17.775Z,22.9
2018-12-25T06:42:08.670Z,22.8
2018-12-25T06:42:58.904Z,22.2
2018-12-25T06:43:49.095Z,21.7
2018-12-25T06:44:38.816Z,21.3
2018-12-25T06:45:28.037Z,21
2018-12-25T06:46:19.422Z,20.8
2018-12-25T06:47:09.270Z,20.6
2018-12-25T06:47:58.862Z,20.4
2018-12-25T06:48:49.132Z,20.2
2018-12-25T06:49:38.630Z,20.1
2018-12-25T06:50:28.394Z,19.9
2018-12-25T06:51:19.428Z,19.9
2018-12-25T06:52:09.272Z,19.8
2018-12-25T06:52:58.665Z,19.6
2018-12-25T06:53:49.637Z,19.4
2018-12-25T06:54:42.402Z,19.3
2018-12-25T06:55:29.334Z,19.1
2018-12-25T06:56:19.420Z,18.9
2018-12-25T06:57:10.024Z,18.9
2018-12-25T06:57:59.839Z,19.3
2018-12-25T06:58:49.524Z,19.8
2018-12-25T06:59:39.937Z,20.1
2018-12-25T07:00:29.677Z,20.4
2018-12-25T07:01:19.921Z,20.8
2018-12-25T07:02:08.936Z,21
2018-12-25T07:02:59.520Z,21.2
2018-12-25T07:03:49.422Z,21.4
2018-12-25T07:04:40.261Z,21.6
2018-12-25T07:05:30.511Z,21.7
2018-12-25T07:06:19.166Z,21.8
2018-12-25T07:07:10.266Z,21.9
2018-12-25T07:07:59.408Z,21.9
2018-12-25T07:08:50.271Z,22.1
2018-12-25T07:09:40.851Z,22.1
2018-12-25T07:10:30.611Z,22.3
2018-12-25T07:11:20.409Z,22.3
2018-12-25T07:12:09.965Z,22.4
2018-12-25T07:12:59.753Z,22.4
2018-12-25T07:13:51.119Z,22.5
2018-12-25T07:14:39.958Z,22.6
2018-12-25T07:15:40.035Z,22.6
2018-12-25T07:16:21.000Z,22
2018-12-25T07:17:11.487Z,21.4
2018-12-25T07:18:01.608Z,20.4
2018-12-25T07:18:51.354Z,19.6
2018-12-25T07:19:42.060Z,18.8
2018-12-25T07:20:32.992Z,18.8
2018-12-25T07:21:21.547Z,18.8
2018-12-25T07:22:10.534Z,19.3
2018-12-25T07:23:01.159Z,19.9
2018-12-25T07:23:51.582Z,20.4
2018-12-25T07:24:42.037Z,20.8
2018-12-25T07:25:32.202Z,21.1
2018-12-25T07:26:22.121Z,21.3
2018-12-25T07:27:11.943Z,21.5
2018-12-25T07:28:01.824Z,21.7
2018-12-25T07:28:51.509Z,21.8
2018-12-25T07:29:41.848Z,21.9
2018-12-25T07:30:31.798Z,22.1
2018-12-25T07:31:22.196Z,22.2
2018-12-25T07:32:12.249Z,22.3
2018-12-25T07:33:02.407Z,22.4
2018-12-25T07:33:51.970Z,22.5
2018-12-25T07:34:42.505Z,22.6
2018-12-25T07:35:33.178Z,22.6
2018-12-25T07:36:22.648Z,22.7
2018-12-25T07:37:11.873Z,22.8
2018-12-25T07:38:02.218Z,22.8
2018-12-25T07:38:52.442Z,22.9
2018-12-25T07:39:42.283Z,22.9
2018-12-25T07:40:32.918Z,23
2018-12-25T07:41:22.289Z,22.4
2018-12-25T07:42:12.590Z,21.9
2018-12-25T07:43:02.855Z,21.4
2018-12-25T07:43:53.055Z,21.1
2018-12-25T07:44:42.853Z,20.8
2018-12-25T07:45:33.220Z,20.6
2018-12-25T07:46:21.850Z,20.4
2018-12-25T07:47:15.142Z,20.3
2018-12-25T07:48:02.814Z,20.1
2018-12-25T07:48:52.937Z,20
2018-12-25T07:49:42.697Z,19.8
2018-12-25T07:50:34.357Z,19.8
2018-12-25T07:51:29.350Z,19.7
2018-12-25T07:52:14.114Z,19.4
2018-12-25T07:53:03.479Z,19.3
2018-12-25T07:53:53.208Z,19.1
2018-12-25T07:54:43.645Z,18.9
2018-12-25T07:55:33.912Z,18.8
2018-12-25T07:56:23.439Z,19.1
2018-12-25T07:57:13.984Z,19.7
2018-12-25T07:58:03.767Z,20.1
2018-12-25T07:58:52.896Z,20.4
2018-12-25T07:59:43.348Z,20.7
2018-12-25T08:00:34.067Z,20.9
2018-12-25T08:01:24.159Z,21.2
2018-12-25T08:02:14.862Z,21.4
2018-12-25T08:03:04.434Z,21.5
2018-12-25T08:03:54.401Z,21.7
2018-12-25T08:04:42.936Z,21.8
2018-12-25T08:05:34.129Z,21.9
2018-12-25T08:06:24.916Z,22
2018-12-25T08:07:15.226Z,22.1
2018-12-25T08:08:04.506Z,22.1
2018-12-25T08:08:55.106Z,22.3
2018-12-25T08:09:45.381Z,22.4
2018-12-25T08:10:34.936Z,22.4
2018-12-25T08:11:24.776Z,22.5
2018-12-25T08:12:15.664Z,22.6
2018-12-25T08:13:04.796Z,22.6
2018-12-25T08:13:55.138Z,22.7
2018-12-25T08:14:44.745Z,22.8
2018-12-25T08:15:35.051Z,22.8
2018-12-25T08:16:25.833Z,22.8
2018-12-25T08:17:15.021Z,22.9
2018-12-25T08:18:05.960Z,23
2018-12-25T08:18:55.743Z,22.4
2018-12-25T08:19:45.653Z,21.9
2018-12-25T08:20:34.488Z,21.4
2018-12-25T08:22:15.950Z,20.8
2018-12-25T08:23:10.704Z,20.6
2018-12-25T08:23:55.769Z,20.4
2018-12-25T08:24:46.520Z,20.3
2018-12-25T08:25:35.648Z,20.1
2018-12-25T08:26:25.693Z,19.9
2018-12-25T08:27:15.495Z,19.8
2018-12-25T08:28:05.080Z,19.7
2018-12-25T08:28:55.890Z,19.7
2018-12-25T08:29:44.573Z,19.5
2018-12-25T08:30:35.496Z,19.3
2018-12-25T08:31:25.497Z,19.1
2018-12-25T08:32:16.333Z,18.9
2018-12-25T08:33:06.247Z,18.9
2018-12-25T08:33:55.947Z,19.1
2018-12-25T08:34:46.539Z,19.6
2018-12-25T08:35:37.117Z,20.1
2018-12-25T08:36:26.542Z,20.4
2018-12-25T08:37:16.992Z,20.6
2018-12-25T08:38:06.234Z,20.9
2018-12-25T08:39:46.419Z,21.3
2018-12-25T08:40:36.919Z,21.5
2018-12-25T08:41:27.540Z,21.6
2018-12-25T08:42:17.091Z,21.8
2018-12-25T08:43:06.847Z,21.9
2018-12-25T08:43:56.966Z,21.9
2018-12-25T08:44:46.494Z,22.1
2018-12-25T08:45:36.609Z,22.1
2018-12-25T08:46:27.349Z,22.2
2018-12-25T08:47:19.351Z,22.3
2018-12-25T08:48:06.614Z,22.4
2018-12-25T08:48:57.512Z,22.4
2018-12-25T08:49:47.862Z,22.6
2018-12-25T08:50:37.115Z,22.6
2018-12-25T08:51:27.928Z,22.6
2018-12-25T08:52:17.461Z,22.6
2018-12-25T08:53:07.499Z,22.1
2018-12-25T08:53:57.088Z,21.3
2018-12-25T08:54:47.654Z,20.3
2018-12-25T08:55:37.841Z,19.4
2018-12-25T08:56:26.933Z,19
2018-12-25T08:57:17.821Z,19
2018-12-25T08:58:07.881Z,19.4
2018-12-25T08:58:58.587Z,20
2018-12-25T08:59:48.775Z,20.5
2018-12-25T09:00:37.553Z,20.8
2018-12-25T09:16:28.250Z,22.8
2018-12-25T09:17:18.380Z,22.1
2018-12-25T09:18:07.915Z,21.6
2018-12-25T09:18:58.684Z,21.3
2018-12-25T09:19:49.045Z,20.9
2018-12-25T09:20:38.241Z,20.6
2018-12-25T09:21:30.262Z,20.5
2018-12-25T09:22:18.509Z,20.3
2018-12-25T09:23:08.694Z,20.1
2018-12-25T09:23:58.548Z,20
2018-12-25T09:24:48.572Z,19.9
2018-12-25T09:25:38.611Z,19.8
2018-12-25T09:26:29.772Z,19.7
2018-12-25T09:27:18.684Z,19.4
2018-12-25T09:28:09.114Z,19.3
2018-12-25T09:28:59.632Z,19.1
2018-12-25T09:29:48.849Z,18.9
2018-12-25T09:30:39.030Z,18.8
2018-12-25T09:31:30.579Z,18.9
2018-12-25T09:32:19.581Z,19.5
2018-12-25T09:33:09.756Z,19.9
2018-12-25T09:33:58.876Z,20.3
2018-12-25T09:34:51.624Z,20.6
2018-12-25T09:35:39.668Z,20.9
2018-12-25T09:37:20.201Z,21.3
2018-12-25T09:38:10.031Z,21.5
2018-12-25T09:38:59.780Z,21.6
2018-12-25T09:39:50.073Z,21.8
2018-12-25T09:40:39.094Z,21.9
2018-12-25T09:41:30.311Z,22
2018-12-25T09:42:20.393Z,22.1
2018-12-25T09:43:09.256Z,22.2
2018-12-25T09:44:00.396Z,22.3
2018-12-25T09:44:50.505Z,22.4
2018-12-25T09:45:39.697Z,22.4
2018-12-25T09:46:29.634Z,22.5
2018-12-25T09:47:19.813Z,22.6
2018-12-25T09:48:18.783Z,22.6
2018-12-25T09:49:00.330Z,22.7
2018-12-25T09:49:50.573Z,22.8
2018-12-25T09:50:40.627Z,22.8
2018-12-25T09:51:30.223Z,22.9
2018-12-25T09:52:20.795Z,22.9
2018-12-25T09:53:10.265Z,23
2018-12-25T09:54:00.575Z,22.8
2018-12-25T09:54:50.090Z,22.1
2018-12-25T09:55:40.128Z,21.7
2018-12-25T09:56:30.957Z,21.3
2018-12-25T09:57:22.030Z,21
2018-12-25T09:58:11.072Z,20.8
2018-12-25T09:59:01.409Z,20.5
2018-12-25T09:59:51.481Z,20.4
2018-12-25T10:00:42.502Z,20.2
2018-12-25T10:01:32.224Z,20.1
2018-12-25T10:02:21.042Z,19.9
2018-12-25T10:03:11.713Z,19.8
2018-12-25T10:04:01.555Z,19.8
2018-12-25T10:04:51.514Z,19.7
2018-12-25T10:05:41.923Z,19.4
2018-12-25T10:06:32.269Z,19.3
2018-12-25T10:07:24.498Z,19.1
2018-12-25T10:08:12.036Z,18.9
2018-12-25T10:09:01.824Z,18.9
2018-12-25T10:09:51.222Z,19.3
2018-12-25T10:10:41.784Z,19.8
2018-12-25T10:11:32.534Z,20.3
2018-12-25T10:12:22.909Z,20.6
2018-12-25T10:13:11.394Z,20.8
2018-12-25T10:14:01.736Z,21.1
2018-12-25T10:14:53.156Z,21.3
2018-12-25T10:15:42.483Z,21.5
2018-12-25T10:16:32.658Z,21.6
2018-12-25T10:17:23.528Z,21.8
2018-12-25T10:18:11.241Z,21.9
2018-12-25T10:19:03.381Z,22
2018-12-25T10:19:52.928Z,22.1
2018-12-25T10:20:42.901Z,22.3
2018-12-25T10:21:33.531Z,22.3
2018-12-25T10:22:22.751Z,22.4
2018-12-25T10:23:12.586Z,22.4
2018-12-25T10:24:02.898Z,22.5
2018-12-25T10:24:55.721Z,22.6
2018-12-25T10:25:43.012Z,22.7
2018-12-25T10:26:33.368Z,22.8
2018-12-25T10:27:22.376Z,22.8
2018-12-25T10:28:13.503Z,22.9
2018-12-25T10:29:03.703Z,22.9
2018-12-25T10:29:52.182Z,22.9
2018-12-25T10:30:43.565Z,22.4
2018-12-25T10:31:33.505Z,21.8
2018-12-25T10:32:23.447Z,20.6
2018-12-25T10:33:12.678Z,19.7
2018-12-25T10:34:03.292Z,19.5
2018-12-25T10:34:53.302Z,19.5
2018-12-25T10:35:43.051Z,20
2018-12-25T10:36:33.953Z,20.6
2018-12-25T10:37:23.275Z,21
2018-12-25T10:38:14.635Z,21.3
2018-12-25T10:39:03.725Z,21.6
2018-12-25T10:39:53.748Z,21.7
2018-12-25T10:40:43.692Z,21.9
2018-12-25T10:41:33.719Z,22.1
2018-12-25T10:42:24.415Z,22.2
2018-12-25T10:43:13.885Z,22.3
2018-12-25T10:44:04.289Z,22.4
2018-12-25T10:44:54.514Z,22.5
2018-12-25T10:45:42.739Z,22.6
2018-12-25T10:46:34.184Z,22.6
2018-12-25T10:47:23.829Z,22.8
2018-12-25T10:48:13.817Z,22.8
2018-12-25T10:49:04.629Z,22.9
2018-12-25T10:49:53.931Z,22.9
2018-12-25T10:50:46.156Z,23.1
2018-12-25T10:51:34.762Z,22.9
2018-12-25T10:52:24.083Z,22.4
2018-12-25T10:53:14.868Z,21.9
2018-12-25T10:54:05.302Z,21.4
2018-12-25T10:54:54.573Z,21.1
2018-12-25T10:55:44.558Z,20.8
2018-12-25T10:56:34.838Z,20.6
2018-12-25T10:57:25.353Z,20.4
2018-12-25T10:58:15.263Z,20.3
2018-12-25T10:59:04.469Z,20.1
2018-12-25T10:59:55.554Z,19.9
2018-12-25T11:00:45.688Z,19.8
2018-12-25T11:01:35.757Z,19.8
2018-12-25T11:02:25.988Z,19.6
2018-12-25T11:03:17.900Z,19.4
2018-12-25T11:04:05.568Z,19.2
2018-12-25T11:04:56.100Z,19.1
2018-12-25T11:05:45.647Z,18.9
2018-12-25T11:06:36.280Z,18.8
2018-12-25T11:07:26.415Z,19.1
2018-12-25T11:08:15.841Z,19.7
2018-12-25T11:09:06.390Z,20.1
2018-12-25T11:09:57.095Z,20.4
2018-12-25T11:10:46.294Z,20.8
2018-12-25T11:11:36.155Z,20.9
2018-12-25T11:12:26.910Z,21.2
2018-12-25T11:13:15.982Z,21.4
2018-12-25T11:14:05.745Z,21.5
2018-12-25T11:14:58.185Z,21.7
2018-12-25T11:15:46.102Z,21.8
2018-12-25T11:16:36.102Z,21.9
2018-12-25T11:17:26.219Z,22
2018-12-25T11:18:16.590Z,22.1
2018-12-25T11:19:07.123Z,22.2
2018-12-25T11:19:56.345Z,22.3
2018-12-25T11:20:46.749Z,22.4
2018-12-25T11:21:37.564Z,22.4
2018-12-25T11:22:27.645Z,22.6
2018-12-25T11:23:17.169Z,22.7
2018-12-25T11:24:06.370Z,22.7
2018-12-25T11:24:57.254Z,22.8
2018-12-25T11:25:47.785Z,22.8
2018-12-25T11:26:37.391Z,23
2018-12-25T11:27:27.681Z,23.1
2018-12-25T11:28:17.724Z,23
2018-12-25T11:29:07.591Z,22.3
2018-12-25T11:29:57.581Z,21.9
2018-12-25T11:30:47.906Z,21.4
2018-12-25T11:31:37.238Z,21.1
2018-12-25T11:32:28.314Z,20.8
2018-12-25T11:33:17.810Z,20.6
2018-12-25T11:34:10.486Z,20.4
2018-12-25T11:34:58.043Z,20.3
2018-12-25T11:35:47.756Z,20.1
2018-12-25T11:36:37.563Z,19.9
2018-12-25T11:37:27.068Z,19.8
2018-12-25T11:38:17.603Z,19.7
2018-12-25T11:39:07.636Z,19.4
2018-12-25T11:39:58.198Z,19.3
2018-12-25T11:40:48.353Z,19
2018-12-25T11:41:38.488Z,18.8
2018-12-25T11:43:17.768Z,18.8
2018-12-25T11:44:08.369Z,19.4
2018-12-25T11:44:58.645Z,19.9
2018-12-25T11:45:48.625Z,20.3
2018-12-25T11:46:39.302Z,20.6
2018-12-25T11:47:28.580Z,20.8
2018-12-25T11:48:19.125Z,21
2018-12-25T11:49:08.652Z,21.2
2018-12-25T11:49:58.574Z,21.4
2018-12-25T11:50:48.600Z,21.4
2018-12-25T11:51:38.560Z,21.6
2018-12-25T11:52:36.635Z,21.7
2018-12-25T11:53:19.295Z,21.8
2018-12-25T11:54:09.873Z,21.9
2018-12-25T11:54:59.312Z,22
2018-12-25T11:55:49.425Z,22.1
2018-12-25T11:56:39.505Z,22.2
2018-12-25T11:57:29.520Z,22.3
2018-12-25T11:58:20.200Z,22.4
2018-12-25T11:59:10.192Z,22.4
2018-12-25T11:59:59.691Z,22.5
2018-12-25T12:00:49.257Z,22.6
2018-12-25T12:01:39.879Z,22.6
2018-12-25T12:02:29.609Z,22.7
2018-12-25T12:03:19.406Z,22.8
2018-12-25T12:04:09.951Z,22.8
2018-12-25T12:05:00.286Z,22.7
2018-12-25T12:05:49.527Z,22.1
2018-12-25T12:06:40.924Z,21.6